KOJA

Details ICAO KOJA
Name THOMAS P STAFFORD
Region United States
Timezone America/Chicago (UTC-5.0)
Plans Departing 2
Arriving 1
Stats Elevation 1,605 ft / 489 m (AMSL)
Location 35.544837° -98.668502°
Runways 1
Magnetic Variation 4.385° E
Sunrise 2018-05-24 11:25:24 UTC / 2018-05-24 06:25:24 Local
Sunset 2018-05-25 01:40:32 UTC / 2018-05-24 20:40:32 Local
Advertisement - Login to hide

Runways

ID Width Length Bearing (true) Bearing (mag) Surface Threshold Offset Overrun Length
17 75 ft / 23 m 4,411 ft / 1,344 m 179.88° 175.50° Concrete 0 ft / 0 m 0 ft / 0 m
35 75 ft / 23 m 4,411 ft / 1,344 m 359.88° 355.50° Concrete 0 ft / 0 m 0 ft / 0 m

Map

Weather


0- 5 10 15 20 25 30 35+ Temperature / ° C

Clouds and Precipitation
Forecast for 2018-05-25 00:00 UTC. Updated 4 hours ago

Ground ~20,000 ft ~40,000 ft Winds

METAR

KOJA 250315Z AUTO 16009KT 10SM CLR 25/20 A2999 RMK AO2

TAF

Not found

Frequencies

Recorded 118.57 MHz AWOS 3
Unicom 122.80 MHz CTAF/UNICOM
Warning: Do not use this data for real-world aviation or navigation. No guarantee of current accuracy is given.